Terminal Aerodrome Forecast
Issued by NWS Grand Forks, ND

Home | Current Version | Previous Version | Text Only | Print | Product List | Glossary On
Versions: 1 2 3 4 5 6 7 8 9 10 11 12 13 14 15 16 17 18 19 20 21 22
208
FTUS43 KFGF 180520
TAFFAR
TAF
KFAR 180520Z 1806/1906 00000KT P6SM FEW250
     FM181000 VRB03KT P6SM VCTS BKN100CB
     FM181300 17005KT P6SM BKN100
     FM182100 24004KT P6SM SCT150
     FM190000 31005KT P6SM FEW200=

USA.gov is the U.S. government's official web portal to all federal, state and local government web resources and services.